createdAt,value
2022-11-02T00:00:17.269Z,37.85
2022-11-02T00:02:45.539Z,37.78
2022-11-02T00:05:14.751Z,39.13
2022-11-02T00:07:43.571Z,36.72
2022-11-02T00:10:12.139Z,38.70
2022-11-02T00:12:40.316Z,37.13
2022-11-02T00:15:09.922Z,39.53
2022-11-02T00:17:40.736Z,38.38
2022-11-02T00:20:10.503Z,40.75
2022-11-02T00:22:39.854Z,40.20
2022-11-02T00:25:12.382Z,40.97
2022-11-02T00:27:41.825Z,38.92
2022-11-02T00:30:11.681Z,40.75
2022-11-02T00:32:41.268Z,39.35
2022-11-02T00:35:10.364Z,39.78
2022-11-02T00:37:38.948Z,41.03
2022-11-02T00:40:08.169Z,38.17
2022-11-02T00:42:36.446Z,42.10
2022-11-02T00:45:05.154Z,39.13
2022-11-02T00:47:33.596Z,37.92
2022-11-02T00:50:03.407Z,39.08
2022-11-02T00:52:33.007Z,37.95
2022-11-02T00:55:01.893Z,39.42
2022-11-02T00:57:31.286Z,39.03
2022-11-02T01:00:00.050Z,37.22
2022-11-02T01:02:28.460Z,41.58
2022-11-02T01:04:56.703Z,41.08
2022-11-02T01:07:26.304Z,39.63
2022-11-02T01:09:54.552Z,39.20
2022-11-02T01:12:22.834Z,39.17
2022-11-02T01:14:51.881Z,39.95
2022-11-02T01:17:20.889Z,40.17
2022-11-02T01:19:51.075Z,42.53
2022-11-02T01:22:19.473Z,40.97
2022-11-02T01:24:49.128Z,41.88
2022-11-02T01:27:17.306Z,43.47
2022-11-02T01:29:46.108Z,40.85
2022-11-02T01:32:14.346Z,43.00
2022-11-02T01:34:42.950Z,40.95
2022-11-02T01:37:11.569Z,44.35
2022-11-02T01:39:40.268Z,41.47
2022-11-02T01:42:19.984Z,42.38
2022-11-02T01:44:48.265Z,43.08
2022-11-02T01:47:20.647Z,42.45
2022-11-02T01:49:51.506Z,41.35
2022-11-02T01:52:23.825Z,42.58
2022-11-02T01:54:56.769Z,40.53
2022-11-02T01:57:28.746Z,42.60
2022-11-02T02:00:01.009Z,44.53
2022-11-02T02:02:29.988Z,43.30
2022-11-02T02:05:03.674Z,43.05
2022-11-02T02:07:34.160Z,43.60
2022-11-02T02:10:02.865Z,42.72
2022-11-02T02:12:34.337Z,46.75
2022-11-02T02:15:02.734Z,45.85
2022-11-02T02:17:43.136Z,45.75
2022-11-02T02:20:21.426Z,48.58
2022-11-02T02:23:14.738Z,50.47
2022-11-02T02:26:22.076Z,47.13
2022-11-02T02:28:55.663Z,46.95
2022-11-02T02:31:32.803Z,47.38
2022-11-02T02:34:05.542Z,50.95
2022-11-02T02:36:37.598Z,51.20
2022-11-02T02:39:12.263Z,49.35
2022-11-02T02:41:44.289Z,52.58
2022-11-02T02:44:18.305Z,52.67
2022-11-02T02:46:53.558Z,53.55
2022-11-02T02:49:29.478Z,54.08
2022-11-02T02:51:58.804Z,52.75
2022-11-02T02:54:32.904Z,51.97
2022-11-02T02:57:04.910Z,53.63
2022-11-02T02:59:40.333Z,52.30
2022-11-02T03:02:18.268Z,53.10
2022-11-02T03:04:46.580Z,50.20
2022-11-02T03:07:20.430Z,52.72
2022-11-02T03:09:53.296Z,54.50
2022-11-02T03:12:30.836Z,53.42
2022-11-02T03:15:12.135Z,53.72
2022-11-02T03:17:50.537Z,54.25
2022-11-02T03:20:27.070Z,55.63
2022-11-02T03:23:08.183Z,54.85
2022-11-02T03:25:46.251Z,57.60
2022-11-02T03:28:19.873Z,60.38
2022-11-02T03:30:58.188Z,53.88
2022-11-02T03:33:32.585Z,55.70
2022-11-02T03:36:08.934Z,57.30
2022-11-02T03:38:44.627Z,61.88
2022-11-02T03:41:16.282Z,55.88
2022-11-02T03:43:48.219Z,64.07
2022-11-02T03:46:20.055Z,57.78
2022-11-02T03:48:52.216Z,60.05
2022-11-02T03:51:23.917Z,60.67
2022-11-02T03:53:57.808Z,63.88
2022-11-02T03:56:30.823Z,62.03
2022-11-02T03:58:59.836Z,64.57
2022-11-02T04:01:34.370Z,64.10
2022-11-02T04:04:05.432Z,67.32
2022-11-02T04:06:35.442Z,65.93
2022-11-02T04:09:04.750Z,66.53
2022-11-02T04:11:51.213Z,66.13
2022-11-02T04:14:37.563Z,67.45
2022-11-02T04:17:28.474Z,69.60
2022-11-02T04:19:58.404Z,68.97
2022-11-02T04:22:45.083Z,68.82
2022-11-02T04:25:19.450Z,69.78
2022-11-02T04:28:13.284Z,68.82
2022-11-02T04:30:47.317Z,67.18
2022-11-02T04:33:35.646Z,68.00
2022-11-02T04:36:12.196Z,68.20
2022-11-02T04:38:41.332Z,68.53
2022-11-02T04:41:36.729Z,72.05
2022-11-02T04:44:08.557Z,76.18
2022-11-02T04:46:38.173Z,73.07
2022-11-02T04:49:09.740Z,75.90
2022-11-02T04:51:44.550Z,80.78
2022-11-02T04:54:17.367Z,76.82
2022-11-02T04:56:46.362Z,76.25
2022-11-02T04:59:15.609Z,80.43
2022-11-02T05:01:44.430Z,80.05
2022-11-02T05:04:14.622Z,80.15
2022-11-02T05:06:42.900Z,76.10
2022-11-02T05:09:12.202Z,78.78
2022-11-02T05:11:44.411Z,81.38
2022-11-02T05:14:13.074Z,78.95
2022-11-02T05:16:44.806Z,79.93
2022-11-02T05:19:16.318Z,80.45
2022-11-02T05:21:47.906Z,86.38
2022-11-02T05:24:16.203Z,81.97
2022-11-02T05:26:45.441Z,82.97
2022-11-02T05:29:15.897Z,82.55
2022-11-02T05:31:44.182Z,80.72
2022-11-02T05:34:12.374Z,82.90
2022-11-02T05:36:41.945Z,82.25
2022-11-02T05:39:10.235Z,75.40
2022-11-02T05:41:38.557Z,78.85
2022-11-02T05:44:07.100Z,74.78
2022-11-02T05:46:37.080Z,74.53
2022-11-02T05:49:05.402Z,72.20
2022-11-02T05:51:33.525Z,73.18
2022-11-02T05:54:03.304Z,73.80
2022-11-02T05:56:31.543Z,74.15
2022-11-02T05:58:59.763Z,74.60
2022-11-02T06:01:28.202Z,70.60
2022-11-02T06:03:56.516Z,73.57
2022-11-02T06:06:24.785Z,68.80
2022-11-02T06:08:53.229Z,68.20
2022-11-02T06:11:22.807Z,65.88
2022-11-02T06:13:52.335Z,67.65
2022-11-02T06:16:23.224Z,66.55
2022-11-02T06:18:52.283Z,67.00
2022-11-02T06:21:20.551Z,66.28
2022-11-02T06:23:49.255Z,66.20
2022-11-02T06:26:18.018Z,65.97
2022-11-02T06:28:47.595Z,68.65
2022-11-02T06:31:17.427Z,65.25
2022-11-02T06:33:45.915Z,62.00
2022-11-02T06:36:14.090Z,63.20
2022-11-02T06:38:42.585Z,61.40
2022-11-02T06:41:11.076Z,61.92
2022-11-02T06:43:40.995Z,61.05
2022-11-02T06:46:10.575Z,59.13
2022-11-02T06:48:38.870Z,58.83
2022-11-02T06:51:07.552Z,55.05
2022-11-02T06:53:35.706Z,57.47
2022-11-02T06:56:03.848Z,60.60
2022-11-02T06:58:32.241Z,58.65
2022-11-02T07:01:02.452Z,56.58
2022-11-02T07:03:32.752Z,55.60
2022-11-02T07:06:01.498Z,56.67
2022-11-02T07:08:30.302Z,53.95
2022-11-02T07:10:58.856Z,51.80
2022-11-02T07:13:27.415Z,53.58
2022-11-02T07:15:56.399Z,54.65
2022-11-02T07:18:24.805Z,52.97
2022-11-02T07:20:54.509Z,51.30
2022-11-02T07:23:24.213Z,53.80
2022-11-02T07:25:52.615Z,54.00
2022-11-02T07:28:21.085Z,53.40
2022-11-02T07:30:49.379Z,51.13
2022-11-02T07:33:17.688Z,50.40
2022-11-02T07:35:45.999Z,50.75
2022-11-02T07:38:15.987Z,49.38
2022-11-02T07:40:44.549Z,51.08
2022-11-02T07:43:12.793Z,49.00
2022-11-02T07:45:49.954Z,47.55
2022-11-02T07:48:18.231Z,46.05
2022-11-02T07:50:46.510Z,46.50
2022-11-02T07:53:16.199Z,47.20
2022-11-02T07:55:44.379Z,48.13
2022-11-02T07:58:14.742Z,46.72
2022-11-02T08:00:43.765Z,44.63
2022-11-02T08:03:13.631Z,46.50
2022-11-02T08:05:43.217Z,44.33
2022-11-02T08:08:14.199Z,46.95
2022-11-02T08:10:44.702Z,44.22
2022-11-02T08:13:14.943Z,44.17
2022-11-02T08:15:43.489Z,42.55
2022-11-02T08:18:15.524Z,41.53
2022-11-02T08:20:45.914Z,41.20
2022-11-02T08:23:14.923Z,41.20
2022-11-02T08:25:45.787Z,39.67
2022-11-02T08:28:16.239Z,38.50
2022-11-02T08:30:44.723Z,36.17
2022-11-02T08:33:15.919Z,37.88
2022-11-02T08:35:45.981Z,35.20
2022-11-02T08:38:14.795Z,33.90
2022-11-02T08:40:45.267Z,33.65
2022-11-02T08:43:15.456Z,30.63
2022-11-02T08:46:14.306Z,32.28
2022-11-02T08:48:34.396Z,30.90
2022-11-02T08:51:02.813Z,31.23
2022-11-02T08:53:33.024Z,28.77
2022-11-02T08:56:02.645Z,27.35
2022-11-02T08:58:30.896Z,26.67
2022-11-02T09:00:59.040Z,25.13
2022-11-02T09:03:28.447Z,25.15
2022-11-02T09:06:02.661Z,24.55
2022-11-02T09:08:31.788Z,25.23
2022-11-02T09:11:03.747Z,25.00
2022-11-02T09:13:32.487Z,22.23
2022-11-02T09:16:02.714Z,23.42
2022-11-02T09:18:35.844Z,25.33
2022-11-02T09:21:05.134Z,26.20
2022-11-02T09:23:33.559Z,24.02
2022-11-02T09:26:03.209Z,24.60
2022-11-02T09:28:31.508Z,22.45
2022-11-02T09:30:59.878Z,23.30
2022-11-02T09:33:29.994Z,21.33
2022-11-02T09:36:04.271Z,22.45
2022-11-02T09:38:33.218Z,22.73
2022-11-02T09:41:13.478Z,21.50
2022-11-02T09:43:53.316Z,19.85
2022-11-02T09:46:26.058Z,21.25
2022-11-02T09:49:00.542Z,20.83
2022-11-02T09:51:34.304Z,19.55
2022-11-02T09:54:13.396Z,21.42
2022-11-02T09:56:48.475Z,20.48
2022-11-02T09:59:18.636Z,21.27
2022-11-02T10:01:59.805Z,19.77
2022-11-02T10:04:49.440Z,20.55
2022-11-02T10:07:34.695Z,20.98
2022-11-02T10:10:06.595Z,20.77
2022-11-02T10:12:49.182Z,22.05
2022-11-02T10:15:21.532Z,21.80
2022-11-02T10:17:53.783Z,22.80
2022-11-02T10:20:27.335Z,22.65
2022-11-02T10:23:05.457Z,22.73
2022-11-02T10:25:35.706Z,22.08
2022-11-02T10:28:12.871Z,22.88
2022-11-02T10:30:42.318Z,20.95
2022-11-02T10:33:15.569Z,20.95
2022-11-02T10:36:12.552Z,19.70
2022-11-02T10:38:49.988Z,19.65
2022-11-02T10:41:41.758Z,21.05
2022-11-02T10:44:31.795Z,20.40
2022-11-02T10:47:10.133Z,21.45
2022-11-02T10:49:52.305Z,18.95
2022-11-02T10:52:20.609Z,18.23
2022-11-02T10:54:51.464Z,19.52
2022-11-02T10:57:24.860Z,18.65
2022-11-02T11:00:25.692Z,18.67
2022-11-02T11:03:08.029Z,17.92
2022-11-02T11:05:39.097Z,18.85
2022-11-02T11:08:08.154Z,17.35
2022-11-02T11:10:40.592Z,17.60
2022-11-02T11:16:17.711Z,17.40
2022-11-02T11:21:42.483Z,16.77
2022-11-02T11:24:21.729Z,16.67
2022-11-02T11:27:06.239Z,17.05
2022-11-02T11:29:38.889Z,15.88
2022-11-02T11:32:17.857Z,15.30
2022-11-02T11:34:54.707Z,16.02
2022-11-02T11:37:23.715Z,15.60
2022-11-02T11:39:55.901Z,13.55
2022-11-02T11:42:27.316Z,14.00
2022-11-02T11:45:00.807Z,14.52
2022-11-02T11:47:36.514Z,13.88
2022-11-02T11:50:09.530Z,13.52
2022-11-02T11:52:43.749Z,13.38
2022-11-02T11:55:25.005Z,12.93
2022-11-02T11:58:15.744Z,13.30
2022-11-02T12:00:44.115Z,13.57
2022-11-02T12:03:16.455Z,14.65
2022-11-02T12:05:58.833Z,14.05
2022-11-02T12:08:43.864Z,14.75
2022-11-02T12:11:37.227Z,14.13
2022-11-02T12:14:18.065Z,13.63
2022-11-02T12:17:06.700Z,13.68
2022-11-02T12:19:47.993Z,14.35
2022-11-02T12:22:24.996Z,14.38
2022-11-02T12:25:07.108Z,16.25
2022-11-02T12:27:43.584Z,14.77
2022-11-02T12:30:16.246Z,12.95
2022-11-02T12:33:23.815Z,14.02
2022-11-02T12:36:13.534Z,15.13
2022-11-02T12:38:53.092Z,14.35
2022-11-02T12:41:37.166Z,14.18
2022-11-02T12:44:16.713Z,13.02
2022-11-02T12:46:53.712Z,12.50
2022-11-02T12:49:36.276Z,13.30
2022-11-02T12:52:18.674Z,13.63
2022-11-02T12:54:51.308Z,13.73
2022-11-02T12:57:23.703Z,14.00
2022-11-02T12:59:55.642Z,13.20
2022-11-02T13:02:31.930Z,12.95
2022-11-02T13:05:03.592Z,13.38
2022-11-02T13:07:39.737Z,12.38
2022-11-02T13:10:17.831Z,11.18
2022-11-02T13:12:56.741Z,13.27
2022-11-02T13:15:27.117Z,12.25
2022-11-02T13:17:58.189Z,14.05
2022-11-02T13:20:30.755Z,14.10
2022-11-02T13:23:05.851Z,13.35
2022-11-02T13:25:37.151Z,13.55
2022-11-02T13:28:11.245Z,14.20
2022-11-02T13:30:41.617Z,14.20
2022-11-02T13:33:15.930Z,14.35
2022-11-02T13:35:44.386Z,13.85
2022-11-02T13:38:26.606Z,12.68
2022-11-02T13:41:08.046Z,12.82
2022-11-02T13:44:15.069Z,11.38
2022-11-02T13:47:04.694Z,12.07
2022-11-02T13:49:38.774Z,13.63
2022-11-02T13:52:15.057Z,12.88
2022-11-02T13:54:49.246Z,13.35
2022-11-02T13:57:34.510Z,12.65
2022-11-02T14:00:05.140Z,12.35
2022-11-02T14:02:41.236Z,12.77
2022-11-02T14:05:10.145Z,12.85
2022-11-02T14:07:41.948Z,12.45
2022-11-02T14:10:19.206Z,12.98
2022-11-02T14:12:48.325Z,12.48
2022-11-02T14:15:49.058Z,13.57
2022-11-02T14:18:31.680Z,15.05
2022-11-02T14:21:00.398Z,14.45
2022-11-02T14:23:42.355Z,14.70
2022-11-02T14:26:54.678Z,15.40
2022-11-02T14:29:51.401Z,13.63
2022-11-02T14:32:30.939Z,15.65
2022-11-02T14:35:13.226Z,15.15
2022-11-02T14:37:57.047Z,12.40
2022-11-02T14:40:31.553Z,13.98
2022-11-02T14:43:41.297Z,13.63
2022-11-02T14:46:20.381Z,13.93
2022-11-02T14:48:52.164Z,12.63
2022-11-02T14:51:23.790Z,13.68
2022-11-02T14:53:58.391Z,13.68
2022-11-02T14:56:47.110Z,14.07
2022-11-02T14:59:20.686Z,15.02
2022-11-02T15:01:54.865Z,14.50
2022-11-02T15:04:24.462Z,14.18
2022-11-02T15:06:55.711Z,14.82
2022-11-02T15:09:55.839Z,15.05
2022-11-02T15:12:34.142Z,16.02
2022-11-02T15:15:27.006Z,15.10
2022-11-02T15:18:01.460Z,15.23
2022-11-02T15:20:32.386Z,15.90
2022-11-02T15:23:26.584Z,15.05
2022-11-02T15:25:59.823Z,15.60
2022-11-02T15:28:30.920Z,15.43
2022-11-02T15:31:04.797Z,15.85
2022-11-02T15:33:38.138Z,14.57
2022-11-02T15:36:09.665Z,15.10
2022-11-02T15:38:40.564Z,15.00
2022-11-02T15:41:29.681Z,15.20
2022-11-02T15:44:19.777Z,15.80
2022-11-02T15:47:00.785Z,15.30
2022-11-02T15:49:56.146Z,16.13
2022-11-02T15:53:08.643Z,14.02
2022-11-02T15:55:40.077Z,14.73
2022-11-02T15:58:17.463Z,16.05
2022-11-02T16:01:05.257Z,15.77
2022-11-02T16:03:35.719Z,16.55
2022-11-02T16:06:05.999Z,17.10
2022-11-02T16:08:36.129Z,17.98
2022-11-02T16:11:13.853Z,18.95
2022-11-02T16:14:03.463Z,19.73
2022-11-02T16:16:35.490Z,17.33
2022-11-02T16:19:05.606Z,18.45
2022-11-02T16:21:33.896Z,18.20
2022-11-02T16:24:02.155Z,18.40
2022-11-02T16:26:31.312Z,18.40
2022-11-02T16:29:01.456Z,17.90
2022-11-02T16:31:32.124Z,18.77
2022-11-02T16:34:02.792Z,19.48
2022-11-02T16:36:38.567Z,20.73
2022-11-02T16:39:16.628Z,21.83
2022-11-02T16:41:50.154Z,21.83
2022-11-02T16:44:21.451Z,19.27
2022-11-02T16:46:52.458Z,19.60
2022-11-02T16:49:22.078Z,20.60
2022-11-02T16:51:56.679Z,20.27
2022-11-02T16:54:40.895Z,22.10
2022-11-02T16:57:16.559Z,21.02
2022-11-02T16:59:52.325Z,23.08
2022-11-02T17:02:26.048Z,26.50
2022-11-02T17:05:02.465Z,27.85
2022-11-02T17:07:39.682Z,29.60
2022-11-02T17:10:08.925Z,24.73
2022-11-02T17:12:41.318Z,23.95
2022-11-02T17:15:17.164Z,24.98
2022-11-02T17:17:45.647Z,25.92
2022-11-02T17:20:20.328Z,22.70
2022-11-02T17:23:01.772Z,23.77
2022-11-02T17:25:31.663Z,23.17
2022-11-02T17:28:01.338Z,22.15
2022-11-02T17:30:50.819Z,21.63
2022-11-02T17:33:28.206Z,23.00
2022-11-02T17:35:58.244Z,19.58
2022-11-02T17:38:28.850Z,18.92
2022-11-02T17:40:57.446Z,19.52
2022-11-02T17:43:24.780Z,20.08
2022-11-02T17:45:57.818Z,18.08
2022-11-02T17:48:28.498Z,18.27
2022-11-02T17:50:59.759Z,19.30
2022-11-02T17:53:29.764Z,18.83
2022-11-02T17:55:58.037Z,20.20
2022-11-02T17:58:26.200Z,21.63
2022-11-02T18:00:57.604Z,20.92
2022-11-02T18:03:31.195Z,24.38
2022-11-02T18:06:00.784Z,24.70
2022-11-02T18:08:30.626Z,22.88
2022-11-02T18:10:58.904Z,18.10
2022-11-02T18:13:27.126Z,15.32
2022-11-02T18:15:55.283Z,14.98
2022-11-02T18:18:23.573Z,16.88
2022-11-02T18:20:51.740Z,16.35
2022-11-02T18:23:20.577Z,14.23
2022-11-02T18:25:52.776Z,13.07
2022-11-02T18:28:23.450Z,14.57
2022-11-02T18:30:51.648Z,13.50
2022-11-02T18:33:19.879Z,13.30
2022-11-02T18:35:48.361Z,13.23
2022-11-02T18:38:16.587Z,12.93
2022-11-02T18:40:44.790Z,14.45
2022-11-02T18:43:14.304Z,12.88
2022-11-02T18:45:42.451Z,13.35
2022-11-02T18:48:10.634Z,12.95
2022-11-02T18:50:38.812Z,12.25
2022-11-02T18:53:07.018Z,12.32
2022-11-02T18:55:35.299Z,12.60
2022-11-02T18:58:03.887Z,11.75
2022-11-02T19:00:33.803Z,12.52
2022-11-02T19:03:05.373Z,12.15
2022-11-02T19:08:43.118Z,11.07
2022-11-02T19:11:11.258Z,11.55
2022-11-02T19:13:39.546Z,11.38
2022-11-02T19:16:09.280Z,11.73
2022-11-02T19:18:37.497Z,10.20
2022-11-02T19:21:05.954Z,11.27
2022-11-02T19:23:34.234Z,10.15
2022-11-02T19:26:02.564Z,10.30
2022-11-02T19:28:32.460Z,9.98
2022-11-02T19:31:06.138Z,11.00
2022-11-02T19:33:36.089Z,10.48
2022-11-02T19:36:06.460Z,10.73
2022-11-02T19:38:38.624Z,8.35
2022-11-02T19:41:12.814Z,9.88
2022-11-02T19:43:42.268Z,9.07
2022-11-02T19:46:14.302Z,9.30
2022-11-02T19:48:52.536Z,8.50
2022-11-02T19:51:22.527Z,8.55
2022-11-02T19:54:01.747Z,8.15
2022-11-02T19:56:31.611Z,9.02
2022-11-02T19:59:05.142Z,9.85
2022-11-02T20:01:35.076Z,8.27
2022-11-02T20:04:05.187Z,7.65
2022-11-02T20:06:38.578Z,8.32
2022-11-02T20:09:08.427Z,8.23
2022-11-02T20:11:39.767Z,8.40
2022-11-02T20:14:08.135Z,8.60
2022-11-02T20:16:36.426Z,8.73
2022-11-02T20:19:06.696Z,8.77
2022-11-02T20:21:39.845Z,7.82
2022-11-02T20:24:11.744Z,8.25
2022-11-02T20:26:44.760Z,8.00
2022-11-02T20:29:15.484Z,9.93
2022-11-02T20:31:46.470Z,9.20
2022-11-02T20:34:16.321Z,7.70
2022-11-02T20:36:44.620Z,8.55
2022-11-02T20:39:13.409Z,8.13
2022-11-02T20:41:41.839Z,8.18
2022-11-02T20:44:10.157Z,8.25
2022-11-02T20:46:41.423Z,7.68
2022-11-02T20:49:22.150Z,8.05
2022-11-02T20:51:58.981Z,8.25
2022-11-02T20:54:29.785Z,8.45
2022-11-02T20:56:58.400Z,8.45
2022-11-02T20:59:26.683Z,8.32
2022-11-02T21:01:55.373Z,8.85
2022-11-02T21:04:24.067Z,7.95
2022-11-02T21:06:52.631Z,7.50
2022-11-02T21:09:22.435Z,7.82
2022-11-02T21:12:07.970Z,8.15
2022-11-02T21:14:38.907Z,7.85
2022-11-02T21:17:07.443Z,8.45
2022-11-02T21:19:36.721Z,8.32
2022-11-02T21:22:04.999Z,7.55
2022-11-02T21:24:34.787Z,8.60
2022-11-02T21:27:03.104Z,8.05
2022-11-02T21:29:31.415Z,7.82
2022-11-02T21:31:59.967Z,8.70
2022-11-02T21:34:28.379Z,9.25
2022-11-02T21:36:56.613Z,8.30
2022-11-02T21:39:36.191Z,9.15
2022-11-02T21:42:06.323Z,9.68
2022-11-02T21:44:42.800Z,10.40
2022-11-02T21:47:17.093Z,9.80
2022-11-02T21:49:45.394Z,9.70
2022-11-02T21:52:13.648Z,9.77
2022-11-02T21:54:41.891Z,10.05
2022-11-02T21:57:12.675Z,10.25
2022-11-02T21:59:41.252Z,12.75
2022-11-02T22:02:11.881Z,10.55
2022-11-02T22:04:40.283Z,10.98
2022-11-02T22:07:08.763Z,11.50
2022-11-02T22:09:37.207Z,11.45
2022-11-02T22:12:23.381Z,11.80
2022-11-02T22:14:53.055Z,11.85
2022-11-02T22:17:43.760Z,13.15
2022-11-02T22:20:10.842Z,12.38
2022-11-02T22:22:39.068Z,11.07
2022-11-02T22:25:07.809Z,12.35
2022-11-02T22:27:36.129Z,12.50
2022-11-02T22:30:07.078Z,13.80
2022-11-02T22:32:35.575Z,13.50
2022-11-02T22:35:03.857Z,14.07
2022-11-02T22:37:49.858Z,13.45
2022-11-02T22:40:18.356Z,13.60
2022-11-02T22:42:46.879Z,14.30
2022-11-02T22:45:28.917Z,14.38
2022-11-02T22:47:57.183Z,14.90
2022-11-02T22:50:27.806Z,13.82
2022-11-02T22:52:56.392Z,14.18
2022-11-02T22:55:25.449Z,14.20
2022-11-02T22:57:59.715Z,15.25
2022-11-02T23:00:33.334Z,14.65
2022-11-02T23:03:01.625Z,13.95
2022-11-02T23:05:31.438Z,14.43
2022-11-02T23:08:08.645Z,14.05
2022-11-02T23:10:55.118Z,14.20
2022-11-02T23:13:23.387Z,14.93
2022-11-02T23:15:53.341Z,13.80
2022-11-02T23:18:41.919Z,14.73
2022-11-02T23:21:09.141Z,12.57
2022-11-02T23:23:54.620Z,13.30
2022-11-02T23:26:23.013Z,13.05
2022-11-02T23:29:08.525Z,12.80
2022-11-02T23:31:55.944Z,12.38
2022-11-02T23:34:26.033Z,11.52
2022-11-02T23:36:53.226Z,10.77
2022-11-02T23:39:35.291Z,10.77
2022-11-02T23:42:03.491Z,10.73
2022-11-02T23:44:32.482Z,10.48
2022-11-02T23:47:02.108Z,10.70
2022-11-02T23:49:30.445Z,9.48
2022-11-02T23:52:15.940Z,9.40
2022-11-02T23:55:01.507Z,8.88
2022-11-02T23:57:30.934Z,8.88
2022-11-02T23:59:59.487Z,9.13
